sensor_id;sensor_type;location;lat;lon;timestamp;P1;durP1;ratioP1;P2;durP2;ratioP2
78555;SDS011;67851;51.354;7.744;2024-03-22T00:02:06;76.85;;;34.22;;
78555;SDS011;67851;51.354;7.744;2024-03-22T00:04:37;73.80;;;34.10;;
78555;SDS011;67851;51.354;7.744;2024-03-22T00:07:03;67.32;;;31.58;;
78555;SDS011;67851;51.354;7.744;2024-03-22T00:09:28;72.53;;;33.20;;
78555;SDS011;67851;51.354;7.744;2024-03-22T00:11:56;71.68;;;32.25;;
78555;SDS011;67851;51.354;7.744;2024-03-22T00:14:22;72.80;;;33.25;;
78555;SDS011;67851;51.354;7.744;2024-03-22T00:16:47;75.25;;;33.20;;
78555;SDS011;67851;51.354;7.744;2024-03-22T00:19:15;72.07;;;34.60;;
78555;SDS011;67851;51.354;7.744;2024-03-22T00:21:42;71.28;;;32.88;;
78555;SDS011;67851;51.354;7.744;2024-03-22T00:24:07;75.30;;;34.38;;
78555;SDS011;67851;51.354;7.744;2024-03-22T00:26:33;76.13;;;34.15;;
78555;SDS011;67851;51.354;7.744;2024-03-22T00:28:59;82.28;;;35.42;;
78555;SDS011;67851;51.354;7.744;2024-03-22T00:31:25;84.32;;;35.90;;
78555;SDS011;67851;51.354;7.744;2024-03-22T00:33:51;83.43;;;35.78;;
78555;SDS011;67851;51.354;7.744;2024-03-22T00:36:17;90.03;;;36.95;;
78555;SDS011;67851;51.354;7.744;2024-03-22T00:38:43;76.82;;;33.92;;
78555;SDS011;67851;51.354;7.744;2024-03-22T00:41:08;80.75;;;34.40;;
78555;SDS011;67851;51.354;7.744;2024-03-22T00:43:34;77.78;;;35.13;;
78555;SDS011;67851;51.354;7.744;2024-03-22T00:46:01;86.60;;;34.78;;
78555;SDS011;67851;51.354;7.744;2024-03-22T00:48:29;81.47;;;35.20;;
78555;SDS011;67851;51.354;7.744;2024-03-22T00:50:57;84.03;;;36.90;;
78555;SDS011;67851;51.354;7.744;2024-03-22T00:53:24;78.07;;;34.03;;
78555;SDS011;67851;51.354;7.744;2024-03-22T00:55:50;86.68;;;34.28;;
78555;SDS011;67851;51.354;7.744;2024-03-22T00:58:19;82.88;;;33.65;;
78555;SDS011;67851;51.354;7.744;2024-03-22T01:00:46;81.40;;;34.40;;
78555;SDS011;67851;51.354;7.744;2024-03-22T01:03:12;81.30;;;36.22;;
78555;SDS011;67851;51.354;7.744;2024-03-22T01:05:41;88.05;;;35.40;;
78555;SDS011;67851;51.354;7.744;2024-03-22T01:08:08;86.22;;;36.70;;
78555;SDS011;67851;51.354;7.744;2024-03-22T01:10:34;85.50;;;35.42;;
78555;SDS011;67851;51.354;7.744;2024-03-22T01:13:03;86.47;;;36.08;;
78555;SDS011;67851;51.354;7.744;2024-03-22T01:15:30;84.45;;;34.58;;
78555;SDS011;67851;51.354;7.744;2024-03-22T01:17:56;90.88;;;35.85;;
78555;SDS011;67851;51.354;7.744;2024-03-22T01:20:22;95.13;;;37.97;;
78555;SDS011;67851;51.354;7.744;2024-03-22T01:22:50;94.75;;;36.70;;
78555;SDS011;67851;51.354;7.744;2024-03-22T01:25:15;94.43;;;37.80;;
78555;SDS011;67851;51.354;7.744;2024-03-22T01:27:41;96.45;;;39.25;;
78555;SDS011;67851;51.354;7.744;2024-03-22T01:30:08;100.55;;;39.40;;
78555;SDS011;67851;51.354;7.744;2024-03-22T01:32:35;103.03;;;38.53;;
78555;SDS011;67851;51.354;7.744;2024-03-22T01:35:01;98.10;;;40.42;;
78555;SDS011;67851;51.354;7.744;2024-03-22T01:37:31;89.30;;;36.95;;
78555;SDS011;67851;51.354;7.744;2024-03-22T01:39:58;89.38;;;38.25;;
78555;SDS011;67851;51.354;7.744;2024-03-22T01:42:23;95.53;;;37.15;;
78555;SDS011;67851;51.354;7.744;2024-03-22T01:44:49;87.10;;;36.03;;
78555;SDS011;67851;51.354;7.744;2024-03-22T01:47:16;84.90;;;36.53;;
78555;SDS011;67851;51.354;7.744;2024-03-22T01:49:43;81.38;;;35.25;;
78555;SDS011;67851;51.354;7.744;2024-03-22T01:52:09;84.00;;;36.80;;
78555;SDS011;67851;51.354;7.744;2024-03-22T01:54:35;75.75;;;33.28;;
78555;SDS011;67851;51.354;7.744;2024-03-22T01:57:02;83.68;;;37.10;;
78555;SDS011;67851;51.354;7.744;2024-03-22T01:59:28;89.18;;;35.10;;
78555;SDS011;67851;51.354;7.744;2024-03-22T02:01:55;75.05;;;32.80;;
78555;SDS011;67851;51.354;7.744;2024-03-22T02:04:21;68.80;;;31.05;;
78555;SDS011;67851;51.354;7.744;2024-03-22T02:06:47;70.32;;;32.90;;
78555;SDS011;67851;51.354;7.744;2024-03-22T02:09:14;72.82;;;33.38;;
78555;SDS011;67851;51.354;7.744;2024-03-22T02:11:40;68.43;;;31.08;;
78555;SDS011;67851;51.354;7.744;2024-03-22T02:14:07;72.68;;;32.38;;
78555;SDS011;67851;51.354;7.744;2024-03-22T02:16:33;71.20;;;31.45;;
78555;SDS011;67851;51.354;7.744;2024-03-22T02:18:58;80.13;;;32.30;;
78555;SDS011;67851;51.354;7.744;2024-03-22T02:21:25;75.53;;;31.52;;
78555;SDS011;67851;51.354;7.744;2024-03-22T02:23:51;73.00;;;32.00;;
78555;SDS011;67851;51.354;7.744;2024-03-22T02:26:17;73.40;;;31.65;;
78555;SDS011;67851;51.354;7.744;2024-03-22T02:28:43;74.97;;;31.17;;
78555;SDS011;67851;51.354;7.744;2024-03-22T02:31:09;64.22;;;29.90;;
78555;SDS011;67851;51.354;7.744;2024-03-22T02:33:35;76.28;;;31.42;;
78555;SDS011;67851;51.354;7.744;2024-03-22T02:36:01;72.93;;;31.92;;
78555;SDS011;67851;51.354;7.744;2024-03-22T02:38:27;64.95;;;30.08;;
78555;SDS011;67851;51.354;7.744;2024-03-22T02:40:53;68.88;;;31.27;;
78555;SDS011;67851;51.354;7.744;2024-03-22T02:43:19;61.13;;;29.02;;
78555;SDS011;67851;51.354;7.744;2024-03-22T02:45:47;64.75;;;27.50;;
78555;SDS011;67851;51.354;7.744;2024-03-22T02:48:13;70.30;;;30.95;;
78555;SDS011;67851;51.354;7.744;2024-03-22T02:50:39;56.50;;;27.00;;
78555;SDS011;67851;51.354;7.744;2024-03-22T02:53:05;63.10;;;29.58;;
78555;SDS011;67851;51.354;7.744;2024-03-22T02:55:39;59.03;;;28.08;;
78555;SDS011;67851;51.354;7.744;2024-03-22T02:58:06;55.22;;;26.20;;
78555;SDS011;67851;51.354;7.744;2024-03-22T03:00:36;55.78;;;27.17;;
78555;SDS011;67851;51.354;7.744;2024-03-22T03:03:03;60.53;;;27.48;;
78555;SDS011;67851;51.354;7.744;2024-03-22T03:05:29;51.88;;;26.05;;
78555;SDS011;67851;51.354;7.744;2024-03-22T03:07:55;54.70;;;26.00;;
78555;SDS011;67851;51.354;7.744;2024-03-22T03:10:22;65.70;;;29.10;;
78555;SDS011;67851;51.354;7.744;2024-03-22T03:12:48;65.53;;;27.42;;
78555;SDS011;67851;51.354;7.744;2024-03-22T03:15:15;65.22;;;28.00;;
78555;SDS011;67851;51.354;7.744;2024-03-22T03:17:41;69.32;;;28.73;;
78555;SDS011;67851;51.354;7.744;2024-03-22T03:20:06;68.40;;;28.23;;
78555;SDS011;67851;51.354;7.744;2024-03-22T03:22:39;66.40;;;28.38;;
78555;SDS011;67851;51.354;7.744;2024-03-22T03:25:05;73.35;;;30.25;;
78555;SDS011;67851;51.354;7.744;2024-03-22T03:27:33;65.25;;;29.08;;
78555;SDS011;67851;51.354;7.744;2024-03-22T03:29:59;72.32;;;28.70;;
78555;SDS011;67851;51.354;7.744;2024-03-22T03:32:26;71.15;;;28.98;;
78555;SDS011;67851;51.354;7.744;2024-03-22T03:34:52;69.78;;;26.25;;
78555;SDS011;67851;51.354;7.744;2024-03-22T03:37:18;69.90;;;29.88;;
78555;SDS011;67851;51.354;7.744;2024-03-22T03:39:43;62.83;;;28.05;;
78555;SDS011;67851;51.354;7.744;2024-03-22T03:42:09;67.15;;;27.42;;
78555;SDS011;67851;51.354;7.744;2024-03-22T03:44:35;57.45;;;26.45;;
78555;SDS011;67851;51.354;7.744;2024-03-22T03:47:01;65.30;;;28.60;;
78555;SDS011;67851;51.354;7.744;2024-03-22T03:49:27;68.07;;;28.73;;
78555;SDS011;67851;51.354;7.744;2024-03-22T03:51:54;67.28;;;28.85;;
78555;SDS011;67851;51.354;7.744;2024-03-22T03:54:20;60.25;;;26.02;;
78555;SDS011;67851;51.354;7.744;2024-03-22T03:56:46;59.83;;;27.20;;
78555;SDS011;67851;51.354;7.744;2024-03-22T03:59:12;61.45;;;27.67;;
78555;SDS011;67851;51.354;7.744;2024-03-22T04:01:38;61.63;;;29.13;;
78555;SDS011;67851;51.354;7.744;2024-03-22T04:04:04;62.25;;;28.05;;
78555;SDS011;67851;51.354;7.744;2024-03-22T04:06:30;58.83;;;28.30;;
78555;SDS011;67851;51.354;7.744;2024-03-22T04:08:56;67.70;;;28.40;;
78555;SDS011;67851;51.354;7.744;2024-03-22T04:11:22;62.42;;;28.58;;
78555;SDS011;67851;51.354;7.744;2024-03-22T04:13:48;56.72;;;27.63;;
78555;SDS011;67851;51.354;7.744;2024-03-22T04:16:15;62.72;;;28.83;;
78555;SDS011;67851;51.354;7.744;2024-03-22T04:18:41;57.88;;;28.55;;
78555;SDS011;67851;51.354;7.744;2024-03-22T04:21:07;59.58;;;27.48;;
78555;SDS011;67851;51.354;7.744;2024-03-22T04:23:33;53.75;;;27.00;;
78555;SDS011;67851;51.354;7.744;2024-03-22T04:25:59;65.10;;;29.10;;
78555;SDS011;67851;51.354;7.744;2024-03-22T04:28:28;57.22;;;26.95;;
78555;SDS011;67851;51.354;7.744;2024-03-22T04:31:01;56.72;;;27.00;;
78555;SDS011;67851;51.354;7.744;2024-03-22T04:33:30;61.88;;;29.45;;
78555;SDS011;67851;51.354;7.744;2024-03-22T04:35:58;59.22;;;28.63;;
78555;SDS011;67851;51.354;7.744;2024-03-22T04:38:25;66.78;;;29.00;;
78555;SDS011;67851;51.354;7.744;2024-03-22T04:40:54;60.88;;;28.67;;
78555;SDS011;67851;51.354;7.744;2024-03-22T04:43:21;66.20;;;29.85;;
78555;SDS011;67851;51.354;7.744;2024-03-22T04:45:47;65.03;;;29.27;;
78555;SDS011;67851;51.354;7.744;2024-03-22T04:48:14;64.15;;;28.50;;
78555;SDS011;67851;51.354;7.744;2024-03-22T04:50:41;61.08;;;28.40;;
78555;SDS011;67851;51.354;7.744;2024-03-22T04:53:07;67.47;;;28.83;;
78555;SDS011;67851;51.354;7.744;2024-03-22T04:55:33;67.22;;;30.23;;
78555;SDS011;67851;51.354;7.744;2024-03-22T04:57:59;56.15;;;27.08;;
78555;SDS011;67851;51.354;7.744;2024-03-22T05:00:26;62.72;;;27.30;;
78555;SDS011;67851;51.354;7.744;2024-03-22T05:02:53;58.30;;;27.40;;
78555;SDS011;67851;51.354;7.744;2024-03-22T05:05:19;62.80;;;28.88;;
78555;SDS011;67851;51.354;7.744;2024-03-22T05:07:45;65.10;;;26.15;;
78555;SDS011;67851;51.354;7.744;2024-03-22T05:10:12;59.13;;;26.20;;
78555;SDS011;67851;51.354;7.744;2024-03-22T05:12:41;53.25;;;26.58;;
78555;SDS011;67851;51.354;7.744;2024-03-22T05:15:07;53.97;;;26.92;;
78555;SDS011;67851;51.354;7.744;2024-03-22T05:17:33;57.42;;;26.02;;
78555;SDS011;67851;51.354;7.744;2024-03-22T05:19:59;55.60;;;26.17;;
78555;SDS011;67851;51.354;7.744;2024-03-22T05:22:24;57.72;;;25.90;;
78555;SDS011;67851;51.354;7.744;2024-03-22T05:24:51;50.28;;;25.42;;
78555;SDS011;67851;51.354;7.744;2024-03-22T05:27:17;60.72;;;26.83;;
78555;SDS011;67851;51.354;7.744;2024-03-22T05:29:43;57.10;;;27.27;;
78555;SDS011;67851;51.354;7.744;2024-03-22T05:32:10;59.03;;;25.42;;
78555;SDS011;67851;51.354;7.744;2024-03-22T05:34:36;49.95;;;24.65;;
78555;SDS011;67851;51.354;7.744;2024-03-22T05:37:02;47.20;;;23.77;;
78555;SDS011;67851;51.354;7.744;2024-03-22T05:39:28;46.88;;;22.50;;
78555;SDS011;67851;51.354;7.744;2024-03-22T05:41:54;43.90;;;23.10;;
78555;SDS011;67851;51.354;7.744;2024-03-22T05:44:24;44.30;;;23.65;;
78555;SDS011;67851;51.354;7.744;2024-03-22T05:46:49;44.97;;;22.42;;
78555;SDS011;67851;51.354;7.744;2024-03-22T05:49:16;40.30;;;22.02;;
78555;SDS011;67851;51.354;7.744;2024-03-22T05:51:41;42.28;;;21.85;;
78555;SDS011;67851;51.354;7.744;2024-03-22T05:54:09;40.67;;;22.38;;
78555;SDS011;67851;51.354;7.744;2024-03-22T05:56:36;37.53;;;19.58;;
78555;SDS011;67851;51.354;7.744;2024-03-22T05:59:02;35.60;;;19.58;;
78555;SDS011;67851;51.354;7.744;2024-03-22T06:01:28;35.85;;;18.73;;
78555;SDS011;67851;51.354;7.744;2024-03-22T06:03:55;41.38;;;20.02;;
78555;SDS011;67851;51.354;7.744;2024-03-22T06:06:22;37.88;;;19.65;;
78555;SDS011;67851;51.354;7.744;2024-03-22T06:08:50;29.67;;;17.20;;
78555;SDS011;67851;51.354;7.744;2024-03-22T06:11:19;33.53;;;17.05;;
78555;SDS011;67851;51.354;7.744;2024-03-22T06:13:46;34.13;;;18.60;;
78555;SDS011;67851;51.354;7.744;2024-03-22T06:16:12;28.73;;;16.13;;
78555;SDS011;67851;51.354;7.744;2024-03-22T06:18:38;28.00;;;15.52;;
78555;SDS011;67851;51.354;7.744;2024-03-22T06:21:05;30.98;;;16.25;;
78555;SDS011;67851;51.354;7.744;2024-03-22T06:23:31;27.90;;;16.40;;
78555;SDS011;67851;51.354;7.744;2024-03-22T06:25:59;26.55;;;15.05;;
78555;SDS011;67851;51.354;7.744;2024-03-22T06:28:26;26.00;;;14.73;;
78555;SDS011;67851;51.354;7.744;2024-03-22T06:30:52;36.78;;;16.88;;
78555;SDS011;67851;51.354;7.744;2024-03-22T06:33:20;26.08;;;15.80;;
78555;SDS011;67851;51.354;7.744;2024-03-22T06:35:46;22.88;;;13.82;;
78555;SDS011;67851;51.354;7.744;2024-03-22T06:38:13;30.00;;;16.45;;
78555;SDS011;67851;51.354;7.744;2024-03-22T06:40:39;31.13;;;16.58;;
78555;SDS011;67851;51.354;7.744;2024-03-22T06:43:05;30.88;;;16.45;;
78555;SDS011;67851;51.354;7.744;2024-03-22T06:45:31;33.38;;;17.63;;
78555;SDS011;67851;51.354;7.744;2024-03-22T06:47:56;27.42;;;15.55;;
78555;SDS011;67851;51.354;7.744;2024-03-22T06:50:22;26.30;;;16.70;;
78555;SDS011;67851;51.354;7.744;2024-03-22T06:52:54;25.05;;;16.27;;
78555;SDS011;67851;51.354;7.744;2024-03-22T06:55:20;30.52;;;17.38;;
78555;SDS011;67851;51.354;7.744;2024-03-22T06:57:47;29.27;;;18.05;;
78555;SDS011;67851;51.354;7.744;2024-03-22T07:00:14;31.30;;;17.70;;
78555;SDS011;67851;51.354;7.744;2024-03-22T07:02:41;28.02;;;18.67;;
78555;SDS011;67851;51.354;7.744;2024-03-22T07:05:08;33.92;;;19.13;;
78555;SDS011;67851;51.354;7.744;2024-03-22T07:07:36;32.85;;;19.92;;
78555;SDS011;67851;51.354;7.744;2024-03-22T07:10:03;37.22;;;20.83;;
78555;SDS011;67851;51.354;7.744;2024-03-22T07:12:31;31.38;;;19.58;;
78555;SDS011;67851;51.354;7.744;2024-03-22T07:14:59;37.00;;;20.60;;
78555;SDS011;67851;51.354;7.744;2024-03-22T07:17:26;34.78;;;21.63;;
78555;SDS011;67851;51.354;7.744;2024-03-22T07:19:54;41.63;;;21.30;;
78555;SDS011;67851;51.354;7.744;2024-03-22T07:22:20;34.95;;;21.10;;
78555;SDS011;67851;51.354;7.744;2024-03-22T07:24:46;30.88;;;19.70;;
78555;SDS011;67851;51.354;7.744;2024-03-22T07:27:13;37.50;;;20.42;;
78555;SDS011;67851;51.354;7.744;2024-03-22T07:29:40;34.00;;;21.23;;
78555;SDS011;67851;51.354;7.744;2024-03-22T07:32:07;35.88;;;20.55;;
78555;SDS011;67851;51.354;7.744;2024-03-22T07:34:33;36.55;;;21.00;;
78555;SDS011;67851;51.354;7.744;2024-03-22T07:36:59;34.42;;;20.58;;
78555;SDS011;67851;51.354;7.744;2024-03-22T07:39:24;36.35;;;21.17;;
78555;SDS011;67851;51.354;7.744;2024-03-22T07:41:50;35.70;;;21.42;;
78555;SDS011;67851;51.354;7.744;2024-03-22T07:44:16;36.65;;;20.73;;
78555;SDS011;67851;51.354;7.744;2024-03-22T07:46:46;34.67;;;20.83;;
78555;SDS011;67851;51.354;7.744;2024-03-22T07:49:12;34.25;;;20.75;;
78555;SDS011;67851;51.354;7.744;2024-03-22T07:51:38;36.15;;;20.88;;
78555;SDS011;67851;51.354;7.744;2024-03-22T07:54:05;31.83;;;20.80;;
78555;SDS011;67851;51.354;7.744;2024-03-22T07:56:31;31.55;;;18.67;;
78555;SDS011;67851;51.354;7.744;2024-03-22T07:58:57;33.08;;;18.83;;
78555;SDS011;67851;51.354;7.744;2024-03-22T08:01:23;35.05;;;20.63;;
78555;SDS011;67851;51.354;7.744;2024-03-22T08:03:49;35.17;;;19.33;;
78555;SDS011;67851;51.354;7.744;2024-03-22T08:06:16;35.58;;;21.17;;
78555;SDS011;67851;51.354;7.744;2024-03-22T08:08:42;35.53;;;19.88;;
78555;SDS011;67851;51.354;7.744;2024-03-22T08:11:07;29.63;;;18.95;;
78555;SDS011;67851;51.354;7.744;2024-03-22T08:13:34;32.28;;;18.85;;
78555;SDS011;67851;51.354;7.744;2024-03-22T08:16:00;31.75;;;18.98;;
78555;SDS011;67851;51.354;7.744;2024-03-22T08:18:26;27.67;;;18.27;;
78555;SDS011;67851;51.354;7.744;2024-03-22T08:20:52;29.98;;;17.75;;
78555;SDS011;67851;51.354;7.744;2024-03-22T08:23:18;31.05;;;19.20;;
78555;SDS011;67851;51.354;7.744;2024-03-22T08:25:46;30.38;;;18.88;;
78555;SDS011;67851;51.354;7.744;2024-03-22T08:28:12;31.33;;;18.63;;
78555;SDS011;67851;51.354;7.744;2024-03-22T08:30:39;27.58;;;17.67;;
78555;SDS011;67851;51.354;7.744;2024-03-22T08:33:06;25.70;;;15.98;;
78555;SDS011;67851;51.354;7.744;2024-03-22T08:35:32;30.92;;;18.85;;
78555;SDS011;67851;51.354;7.744;2024-03-22T08:37:58;37.60;;;18.80;;
78555;SDS011;67851;51.354;7.744;2024-03-22T08:40:24;25.15;;;17.80;;
78555;SDS011;67851;51.354;7.744;2024-03-22T08:42:51;26.70;;;16.77;;
78555;SDS011;67851;51.354;7.744;2024-03-22T08:45:16;28.80;;;18.08;;
78555;SDS011;67851;51.354;7.744;2024-03-22T08:47:43;31.40;;;18.02;;
78555;SDS011;67851;51.354;7.744;2024-03-22T08:50:11;32.10;;;17.48;;
78555;SDS011;67851;51.354;7.744;2024-03-22T08:52:38;25.48;;;16.73;;
78555;SDS011;67851;51.354;7.744;2024-03-22T08:55:03;26.42;;;16.50;;
78555;SDS011;67851;51.354;7.744;2024-03-22T08:57:31;25.75;;;15.65;;
78555;SDS011;67851;51.354;7.744;2024-03-22T08:59:58;24.70;;;14.95;;
78555;SDS011;67851;51.354;7.744;2024-03-22T09:02:24;24.60;;;14.55;;
78555;SDS011;67851;51.354;7.744;2024-03-22T09:04:49;21.55;;;14.32;;
78555;SDS011;67851;51.354;7.744;2024-03-22T09:07:15;23.25;;;13.82;;
78555;SDS011;67851;51.354;7.744;2024-03-22T09:09:41;20.83;;;13.15;;
78555;SDS011;67851;51.354;7.744;2024-03-22T09:12:08;20.55;;;13.85;;
78555;SDS011;67851;51.354;7.744;2024-03-22T09:14:34;25.15;;;13.90;;
78555;SDS011;67851;51.354;7.744;2024-03-22T09:17:00;20.08;;;12.73;;
78555;SDS011;67851;51.354;7.744;2024-03-22T09:19:27;19.05;;;12.77;;
78555;SDS011;67851;51.354;7.744;2024-03-22T09:21:53;22.35;;;12.93;;
78555;SDS011;67851;51.354;7.744;2024-03-22T09:24:19;24.50;;;13.70;;
78555;SDS011;67851;51.354;7.744;2024-03-22T09:26:46;21.85;;;12.02;;
78555;SDS011;67851;51.354;7.744;2024-03-22T09:29:15;20.17;;;11.50;;
78555;SDS011;67851;51.354;7.744;2024-03-22T09:31:44;19.95;;;11.85;;
78555;SDS011;67851;51.354;7.744;2024-03-22T09:34:11;16.08;;;11.40;;
78555;SDS011;67851;51.354;7.744;2024-03-22T09:36:38;22.52;;;11.65;;
78555;SDS011;67851;51.354;7.744;2024-03-22T09:39:04;16.90;;;11.23;;
78555;SDS011;67851;51.354;7.744;2024-03-22T09:41:33;16.77;;;10.98;;
78555;SDS011;67851;51.354;7.744;2024-03-22T09:44:00;20.77;;;11.00;;
78555;SDS011;67851;51.354;7.744;2024-03-22T09:46:28;18.40;;;10.93;;
78555;SDS011;67851;51.354;7.744;2024-03-22T09:48:54;18.35;;;11.07;;
78555;SDS011;67851;51.354;7.744;2024-03-22T09:51:20;20.88;;;11.20;;
78555;SDS011;67851;51.354;7.744;2024-03-22T09:53:49;15.90;;;10.25;;
78555;SDS011;67851;51.354;7.744;2024-03-22T09:56:20;16.02;;;10.57;;
78555;SDS011;67851;51.354;7.744;2024-03-22T09:58:47;17.58;;;9.88;;
78555;SDS011;67851;51.354;7.744;2024-03-22T10:01:13;14.25;;;9.43;;
78555;SDS011;67851;51.354;7.744;2024-03-22T10:03:40;17.52;;;9.77;;
78555;SDS011;67851;51.354;7.744;2024-03-22T10:06:08;17.08;;;10.05;;
78555;SDS011;67851;51.354;7.744;2024-03-22T10:08:36;16.02;;;9.55;;
78555;SDS011;67851;51.354;7.744;2024-03-22T10:11:05;15.95;;;9.13;;
78555;SDS011;67851;51.354;7.744;2024-03-22T10:13:30;15.90;;;10.43;;
78555;SDS011;67851;51.354;7.744;2024-03-22T10:15:57;19.27;;;11.13;;
78555;SDS011;67851;51.354;7.744;2024-03-22T10:18:26;20.92;;;10.52;;
78555;SDS011;67851;51.354;7.744;2024-03-22T10:21:03;15.73;;;9.30;;
78555;SDS011;67851;51.354;7.744;2024-03-22T10:23:32;19.98;;;8.63;;
78555;SDS011;67851;51.354;7.744;2024-03-22T10:26:00;20.15;;;9.27;;
78555;SDS011;67851;51.354;7.744;2024-03-22T10:28:27;14.25;;;8.77;;
78555;SDS011;67851;51.354;7.744;2024-03-22T10:30:53;17.27;;;9.10;;
78555;SDS011;67851;51.354;7.744;2024-03-22T10:33:20;13.80;;;8.60;;
78555;SDS011;67851;51.354;7.744;2024-03-22T10:35:53;16.27;;;8.82;;
78555;SDS011;67851;51.354;7.744;2024-03-22T10:38:19;17.23;;;7.25;;
78555;SDS011;67851;51.354;7.744;2024-03-22T10:40:47;12.02;;;6.25;;
78555;SDS011;67851;51.354;7.744;2024-03-22T10:43:14;9.18;;;6.25;;
78555;SDS011;67851;51.354;7.744;2024-03-22T10:45:41;9.60;;;6.15;;
78555;SDS011;67851;51.354;7.744;2024-03-22T10:48:08;10.18;;;6.07;;
78555;SDS011;67851;51.354;7.744;2024-03-22T10:50:39;19.02;;;6.95;;
78555;SDS011;67851;51.354;7.744;2024-03-22T10:53:06;10.77;;;5.78;;
78555;SDS011;67851;51.354;7.744;2024-03-22T10:55:36;8.80;;;5.28;;
78555;SDS011;67851;51.354;7.744;2024-03-22T10:58:03;10.30;;;5.63;;
78555;SDS011;67851;51.354;7.744;2024-03-22T11:00:30;8.38;;;5.07;;
78555;SDS011;67851;51.354;7.744;2024-03-22T11:02:58;7.72;;;4.60;;
78555;SDS011;67851;51.354;7.744;2024-03-22T11:05:25;9.50;;;5.47;;
78555;SDS011;67851;51.354;7.744;2024-03-22T11:08:01;10.05;;;4.88;;
78555;SDS011;67851;51.354;7.744;2024-03-22T11:10:30;16.25;;;5.25;;
78555;SDS011;67851;51.354;7.744;2024-03-22T11:13:01;11.65;;;5.13;;
78555;SDS011;67851;51.354;7.744;2024-03-22T11:15:34;11.88;;;5.70;;
78555;SDS011;67851;51.354;7.744;2024-03-22T11:18:00;8.35;;;5.68;;
78555;SDS011;67851;51.354;7.744;2024-03-22T11:20:29;8.27;;;5.50;;
78555;SDS011;67851;51.354;7.744;2024-03-22T11:22:56;8.98;;;5.25;;
78555;SDS011;67851;51.354;7.744;2024-03-22T11:25:22;7.95;;;5.40;;
78555;SDS011;67851;51.354;7.744;2024-03-22T11:27:50;11.45;;;6.28;;
78555;SDS011;67851;51.354;7.744;2024-03-22T11:30:15;11.88;;;5.82;;
78555;SDS011;67851;51.354;7.744;2024-03-22T11:32:43;9.90;;;5.55;;
78555;SDS011;67851;51.354;7.744;2024-03-22T11:37:40;10.70;;;5.95;;
78555;SDS011;67851;51.354;7.744;2024-03-22T11:40:10;17.88;;;7.55;;
78555;SDS011;67851;51.354;7.744;2024-03-22T11:42:38;8.93;;;6.20;;
78555;SDS011;67851;51.354;7.744;2024-03-22T11:45:05;10.07;;;6.55;;
78555;SDS011;67851;51.354;7.744;2024-03-22T11:47:33;8.77;;;5.90;;
78555;SDS011;67851;51.354;7.744;2024-03-22T11:49:59;11.15;;;7.15;;
78555;SDS011;67851;51.354;7.744;2024-03-22T11:52:25;10.02;;;7.25;;
78555;SDS011;67851;51.354;7.744;2024-03-22T11:54:52;12.73;;;7.32;;
78555;SDS011;67851;51.354;7.744;2024-03-22T11:57:21;15.43;;;7.20;;
78555;SDS011;67851;51.354;7.744;2024-03-22T11:59:47;9.23;;;6.30;;
78555;SDS011;67851;51.354;7.744;2024-03-22T12:02:13;11.77;;;6.85;;
78555;SDS011;67851;51.354;7.744;2024-03-22T12:04:46;12.18;;;6.70;;
78555;SDS011;67851;51.354;7.744;2024-03-22T12:07:13;11.18;;;6.88;;
78555;SDS011;67851;51.354;7.744;2024-03-22T12:09:44;11.57;;;6.75;;
78555;SDS011;67851;51.354;7.744;2024-03-22T12:12:11;13.55;;;6.60;;
78555;SDS011;67851;51.354;7.744;2024-03-22T12:14:37;8.50;;;6.38;;
78555;SDS011;67851;51.354;7.744;2024-03-22T12:17:04;11.05;;;6.25;;
78555;SDS011;67851;51.354;7.744;2024-03-22T12:19:31;9.15;;;6.18;;
78555;SDS011;67851;51.354;7.744;2024-03-22T12:21:57;9.90;;;6.25;;
78555;SDS011;67851;51.354;7.744;2024-03-22T12:24:23;10.77;;;5.90;;
78555;SDS011;67851;51.354;7.744;2024-03-22T12:26:49;9.50;;;5.65;;
78555;SDS011;67851;51.354;7.744;2024-03-22T12:29:16;8.65;;;5.43;;
78555;SDS011;67851;51.354;7.744;2024-03-22T12:31:43;11.20;;;5.65;;
78555;SDS011;67851;51.354;7.744;2024-03-22T12:34:09;9.50;;;6.13;;
78555;SDS011;67851;51.354;7.744;2024-03-22T12:36:35;10.82;;;5.57;;
78555;SDS011;67851;51.354;7.744;2024-03-22T12:39:02;8.20;;;5.05;;
78555;SDS011;67851;51.354;7.744;2024-03-22T12:41:29;14.20;;;6.47;;
78555;SDS011;67851;51.354;7.744;2024-03-22T12:43:55;9.38;;;5.68;;
78555;SDS011;67851;51.354;7.744;2024-03-22T12:46:21;13.63;;;8.13;;
78555;SDS011;67851;51.354;7.744;2024-03-22T12:48:47;14.45;;;8.38;;
78555;SDS011;67851;51.354;7.744;2024-03-22T12:51:15;13.05;;;7.30;;
78555;SDS011;67851;51.354;7.744;2024-03-22T12:53:41;12.52;;;7.65;;
78555;SDS011;67851;51.354;7.744;2024-03-22T12:56:07;10.63;;;7.43;;
78555;SDS011;67851;51.354;7.744;2024-03-22T12:58:34;11.77;;;6.72;;
78555;SDS011;67851;51.354;7.744;2024-03-22T13:01:03;14.38;;;7.38;;
78555;SDS011;67851;51.354;7.744;2024-03-22T13:03:34;11.48;;;7.72;;
78555;SDS011;67851;51.354;7.744;2024-03-22T13:06:06;11.50;;;7.22;;
78555;SDS011;67851;51.354;7.744;2024-03-22T13:08:32;11.73;;;6.95;;
78555;SDS011;67851;51.354;7.744;2024-03-22T13:11:06;13.18;;;7.88;;
78555;SDS011;67851;51.354;7.744;2024-03-22T13:13:35;13.82;;;6.78;;
78555;SDS011;67851;51.354;7.744;2024-03-22T13:16:02;14.07;;;7.32;;
78555;SDS011;67851;51.354;7.744;2024-03-22T13:18:29;10.35;;;6.40;;
78555;SDS011;67851;51.354;7.744;2024-03-22T13:20:55;12.98;;;7.57;;
78555;SDS011;67851;51.354;7.744;2024-03-22T13:23:21;10.32;;;7.53;;
78555;SDS011;67851;51.354;7.744;2024-03-22T13:25:47;14.07;;;8.52;;
78555;SDS011;67851;51.354;7.744;2024-03-22T13:28:13;12.70;;;8.88;;
78555;SDS011;67851;51.354;7.744;2024-03-22T13:30:39;14.60;;;8.57;;
78555;SDS011;67851;51.354;7.744;2024-03-22T13:33:05;12.88;;;8.45;;
78555;SDS011;67851;51.354;7.744;2024-03-22T13:35:36;14.82;;;7.82;;
78555;SDS011;67851;51.354;7.744;2024-03-22T13:38:02;13.60;;;7.88;;
78555;SDS011;67851;51.354;7.744;2024-03-22T13:40:29;12.75;;;7.95;;
78555;SDS011;67851;51.354;7.744;2024-03-22T13:42:54;15.35;;;8.35;;
78555;SDS011;67851;51.354;7.744;2024-03-22T13:45:21;12.52;;;7.65;;
78555;SDS011;67851;51.354;7.744;2024-03-22T13:47:46;10.18;;;7.10;;
78555;SDS011;67851;51.354;7.744;2024-03-22T13:50:13;14.35;;;7.65;;
78555;SDS011;67851;51.354;7.744;2024-03-22T13:52:39;13.85;;;7.28;;
78555;SDS011;67851;51.354;7.744;2024-03-22T13:55:07;10.88;;;7.40;;
78555;SDS011;67851;51.354;7.744;2024-03-22T13:57:33;13.60;;;7.72;;
78555;SDS011;67851;51.354;7.744;2024-03-22T13:59:59;14.90;;;7.03;;
78555;SDS011;67851;51.354;7.744;2024-03-22T14:02:38;13.88;;;8.10;;
78555;SDS011;67851;51.354;7.744;2024-03-22T14:05:03;13.35;;;7.53;;
78555;SDS011;67851;51.354;7.744;2024-03-22T14:07:29;15.38;;;7.95;;
78555;SDS011;67851;51.354;7.744;2024-03-22T14:09:55;13.00;;;7.85;;
78555;SDS011;67851;51.354;7.744;2024-03-22T14:12:20;11.45;;;8.40;;
78555;SDS011;67851;51.354;7.744;2024-03-22T14:14:47;12.60;;;7.45;;
78555;SDS011;67851;51.354;7.744;2024-03-22T14:17:14;15.07;;;7.75;;
78555;SDS011;67851;51.354;7.744;2024-03-22T14:19:40;12.00;;;6.68;;
78555;SDS011;67851;51.354;7.744;2024-03-22T14:22:06;13.60;;;8.75;;
78555;SDS011;67851;51.354;7.744;2024-03-22T14:24:32;13.02;;;8.93;;
78555;SDS011;67851;51.354;7.744;2024-03-22T14:26:58;17.23;;;9.82;;